sensor_id;sensor_type;location;lat;lon;timestamp;temperature;humidity
6964;DHT22;3522;50.856;7.278;2023-05-19T00:00:15;11.00;99.90
6964;DHT22;3522;50.856;7.278;2023-05-19T00:02:43;10.90;99.90
6964;DHT22;3522;50.856;7.278;2023-05-19T00:05:10;10.90;99.90
6964;DHT22;3522;50.856;7.278;2023-05-19T00:07:39;10.90;99.90
6964;DHT22;3522;50.856;7.278;2023-05-19T00:10:09;10.80;99.90
6964;DHT22;3522;50.856;7.278;2023-05-19T00:12:35;10.80;99.90
6964;DHT22;3522;50.856;7.278;2023-05-19T00:15:03;10.70;99.90
6964;DHT22;3522;50.856;7.278;2023-05-19T00:17:29;10.70;99.90
6964;DHT22;3522;50.856;7.278;2023-05-19T00:19:58;10.70;99.90
6964;DHT22;3522;50.856;7.278;2023-05-19T00:22:25;10.70;99.90
6964;DHT22;3522;50.856;7.278;2023-05-19T00:24:52;10.60;99.90
6964;DHT22;3522;50.856;7.278;2023-05-19T00:27:20;10.60;99.90
6964;DHT22;3522;50.856;7.278;2023-05-19T00:29:46;10.60;99.90
6964;DHT22;3522;50.856;7.278;2023-05-19T00:32:13;10.60;99.90
6964;DHT22;3522;50.856;7.278;2023-05-19T00:34:39;10.60;99.90
6964;DHT22;3522;50.856;7.278;2023-05-19T00:37:06;10.50;99.90
6964;DHT22;3522;50.856;7.278;2023-05-19T00:39:33;10.50;99.90
6964;DHT22;3522;50.856;7.278;2023-05-19T00:41:59;10.50;99.90
6964;DHT22;3522;50.856;7.278;2023-05-19T00:44:28;10.50;99.90
6964;DHT22;3522;50.856;7.278;2023-05-19T00:46:54;10.50;99.90
6964;DHT22;3522;50.856;7.278;2023-05-19T00:49:21;10.50;99.90
6964;DHT22;3522;50.856;7.278;2023-05-19T00:51:47;10.50;99.90
6964;DHT22;3522;50.856;7.278;2023-05-19T00:54:14;10.40;99.90
6964;DHT22;3522;50.856;7.278;2023-05-19T00:56:41;10.40;99.90
6964;DHT22;3522;50.856;7.278;2023-05-19T00:59:07;10.30;99.90
6964;DHT22;3522;50.856;7.278;2023-05-19T01:01:35;10.30;99.90
6964;DHT22;3522;50.856;7.278;2023-05-19T01:04:02;10.20;99.90
6964;DHT22;3522;50.856;7.278;2023-05-19T01:06:29;10.10;99.90
6964;DHT22;3522;50.856;7.278;2023-05-19T01:08:56;10.10;99.90
6964;DHT22;3522;50.856;7.278;2023-05-19T01:11:22;10.10;99.90
6964;DHT22;3522;50.856;7.278;2023-05-19T01:13:49;10.00;99.90
6964;DHT22;3522;50.856;7.278;2023-05-19T01:16:18;10.10;99.90
6964;DHT22;3522;50.856;7.278;2023-05-19T01:18:51;10.10;99.90
6964;DHT22;3522;50.856;7.278;2023-05-19T01:21:35;10.00;99.90
6964;DHT22;3522;50.856;7.278;2023-05-19T01:24:06;9.90;99.90
6964;DHT22;3522;50.856;7.278;2023-05-19T01:26:43;9.90;99.90
6964;DHT22;3522;50.856;7.278;2023-05-19T01:29:21;9.90;99.90
6964;DHT22;3522;50.856;7.278;2023-05-19T01:34:57;9.80;99.90
6964;DHT22;3522;50.856;7.278;2023-05-19T01:37:24;9.90;99.90
6964;DHT22;3522;50.856;7.278;2023-05-19T01:39:51;9.90;99.90
6964;DHT22;3522;50.856;7.278;2023-05-19T01:42:20;9.80;99.90
6964;DHT22;3522;50.856;7.278;2023-05-19T01:44:47;9.80;99.90
6964;DHT22;3522;50.856;7.278;2023-05-19T01:47:14;9.80;99.90
6964;DHT22;3522;50.856;7.278;2023-05-19T01:49:40;9.80;99.90
6964;DHT22;3522;50.856;7.278;2023-05-19T01:52:08;9.70;99.90
6964;DHT22;3522;50.856;7.278;2023-05-19T01:54:35;9.70;99.90
6964;DHT22;3522;50.856;7.278;2023-05-19T01:57:03;9.70;99.90
6964;DHT22;3522;50.856;7.278;2023-05-19T01:59:36;9.70;99.90
6964;DHT22;3522;50.856;7.278;2023-05-19T02:02:08;9.70;99.90
6964;DHT22;3522;50.856;7.278;2023-05-19T02:04:40;9.60;99.90
6964;DHT22;3522;50.856;7.278;2023-05-19T02:07:14;9.60;99.90
6964;DHT22;3522;50.856;7.278;2023-05-19T02:09:51;9.60;99.90
6964;DHT22;3522;50.856;7.278;2023-05-19T02:12:18;9.50;99.90
6964;DHT22;3522;50.856;7.278;2023-05-19T02:14:47;9.50;99.90
6964;DHT22;3522;50.856;7.278;2023-05-19T02:17:15;9.40;99.90
6964;DHT22;3522;50.856;7.278;2023-05-19T02:19:43;9.40;99.90
6964;DHT22;3522;50.856;7.278;2023-05-19T02:22:11;9.30;99.90
6964;DHT22;3522;50.856;7.278;2023-05-19T02:24:37;9.30;99.90
6964;DHT22;3522;50.856;7.278;2023-05-19T02:27:05;9.30;99.90
6964;DHT22;3522;50.856;7.278;2023-05-19T02:29:32;9.20;99.90
6964;DHT22;3522;50.856;7.278;2023-05-19T02:31:59;9.10;99.90
6964;DHT22;3522;50.856;7.278;2023-05-19T02:34:25;9.00;99.90
6964;DHT22;3522;50.856;7.278;2023-05-19T02:36:52;9.00;99.90
6964;DHT22;3522;50.856;7.278;2023-05-19T02:39:20;8.90;99.90
6964;DHT22;3522;50.856;7.278;2023-05-19T02:41:47;8.80;99.90
6964;DHT22;3522;50.856;7.278;2023-05-19T02:44:13;8.80;99.90
6964;DHT22;3522;50.856;7.278;2023-05-19T02:46:40;8.70;99.90
6964;DHT22;3522;50.856;7.278;2023-05-19T02:49:06;8.70;99.90
6964;DHT22;3522;50.856;7.278;2023-05-19T02:51:33;8.70;99.90
6964;DHT22;3522;50.856;7.278;2023-05-19T02:53:59;8.70;99.90
6964;DHT22;3522;50.856;7.278;2023-05-19T02:56:27;8.60;99.90
6964;DHT22;3522;50.856;7.278;2023-05-19T02:58:54;8.60;99.90
6964;DHT22;3522;50.856;7.278;2023-05-19T03:01:21;8.60;99.90
6964;DHT22;3522;50.856;7.278;2023-05-19T03:03:47;8.60;99.90
6964;DHT22;3522;50.856;7.278;2023-05-19T03:06:14;8.50;99.90
6964;DHT22;3522;50.856;7.278;2023-05-19T03:08:42;8.50;99.90
6964;DHT22;3522;50.856;7.278;2023-05-19T03:11:08;8.50;99.90
6964;DHT22;3522;50.856;7.278;2023-05-19T03:13:36;8.50;99.90
6964;DHT22;3522;50.856;7.278;2023-05-19T03:16:03;8.50;99.90
6964;DHT22;3522;50.856;7.278;2023-05-19T03:18:32;8.50;99.90
6964;DHT22;3522;50.856;7.278;2023-05-19T03:20:58;8.50;99.90
6964;DHT22;3522;50.856;7.278;2023-05-19T03:23:25;8.50;99.90
6964;DHT22;3522;50.856;7.278;2023-05-19T03:25:52;8.50;99.90
6964;DHT22;3522;50.856;7.278;2023-05-19T03:28:20;8.50;99.90
6964;DHT22;3522;50.856;7.278;2023-05-19T03:30:48;8.50;99.90
6964;DHT22;3522;50.856;7.278;2023-05-19T03:33:15;8.50;99.90
6964;DHT22;3522;50.856;7.278;2023-05-19T03:35:42;8.40;99.90
6964;DHT22;3522;50.856;7.278;2023-05-19T03:38:08;8.40;99.90
6964;DHT22;3522;50.856;7.278;2023-05-19T03:40:35;8.30;99.90
6964;DHT22;3522;50.856;7.278;2023-05-19T03:43:02;8.30;99.90
6964;DHT22;3522;50.856;7.278;2023-05-19T03:45:28;8.20;99.90
6964;DHT22;3522;50.856;7.278;2023-05-19T03:47:56;8.20;99.90
6964;DHT22;3522;50.856;7.278;2023-05-19T03:50:23;8.20;99.90
6964;DHT22;3522;50.856;7.278;2023-05-19T03:52:51;8.20;99.90
6964;DHT22;3522;50.856;7.278;2023-05-19T03:55:18;8.20;99.90
6964;DHT22;3522;50.856;7.278;2023-05-19T03:57:45;8.20;99.90
6964;DHT22;3522;50.856;7.278;2023-05-19T04:00:13;8.30;99.90
6964;DHT22;3522;50.856;7.278;2023-05-19T04:02:39;8.30;99.90
6964;DHT22;3522;50.856;7.278;2023-05-19T04:05:08;8.30;99.90
6964;DHT22;3522;50.856;7.278;2023-05-19T04:07:35;8.40;99.90
6964;DHT22;3522;50.856;7.278;2023-05-19T04:10:02;8.40;99.90
6964;DHT22;3522;50.856;7.278;2023-05-19T04:12:29;8.40;99.90
6964;DHT22;3522;50.856;7.278;2023-05-19T04:14:56;8.40;99.90
6964;DHT22;3522;50.856;7.278;2023-05-19T04:17:22;8.40;99.90
6964;DHT22;3522;50.856;7.278;2023-05-19T04:19:50;8.50;99.90
6964;DHT22;3522;50.856;7.278;2023-05-19T04:22:18;8.50;99.90
6964;DHT22;3522;50.856;7.278;2023-05-19T04:24:45;8.60;99.90
6964;DHT22;3522;50.856;7.278;2023-05-19T04:27:11;8.60;99.90
6964;DHT22;3522;50.856;7.278;2023-05-19T04:29:40;8.60;99.90
6964;DHT22;3522;50.856;7.278;2023-05-19T04:32:07;8.70;99.90
6964;DHT22;3522;50.856;7.278;2023-05-19T04:34:33;8.70;99.90
6964;DHT22;3522;50.856;7.278;2023-05-19T04:37:00;8.80;99.90
6964;DHT22;3522;50.856;7.278;2023-05-19T04:39:28;8.80;99.90
6964;DHT22;3522;50.856;7.278;2023-05-19T04:41:54;8.80;99.90
6964;DHT22;3522;50.856;7.278;2023-05-19T04:44:21;8.90;99.90
6964;DHT22;3522;50.856;7.278;2023-05-19T04:46:48;8.90;99.90
6964;DHT22;3522;50.856;7.278;2023-05-19T04:49:18;8.90;99.90
6964;DHT22;3522;50.856;7.278;2023-05-19T04:51:45;8.90;99.90
6964;DHT22;3522;50.856;7.278;2023-05-19T04:54:14;8.90;99.90
6964;DHT22;3522;50.856;7.278;2023-05-19T04:56:42;8.80;99.90
6964;DHT22;3522;50.856;7.278;2023-05-19T04:59:08;8.80;99.90
6964;DHT22;3522;50.856;7.278;2023-05-19T05:01:35;8.90;99.90
6964;DHT22;3522;50.856;7.278;2023-05-19T05:04:05;8.90;99.90
6964;DHT22;3522;50.856;7.278;2023-05-19T05:06:32;9.00;99.90
6964;DHT22;3522;50.856;7.278;2023-05-19T05:08:58;8.90;99.90
6964;DHT22;3522;50.856;7.278;2023-05-19T05:11:25;9.00;99.90
6964;DHT22;3522;50.856;7.278;2023-05-19T05:13:53;9.10;99.90
6964;DHT22;3522;50.856;7.278;2023-05-19T05:16:22;9.20;99.90
6964;DHT22;3522;50.856;7.278;2023-05-19T05:18:49;9.30;99.90
6964;DHT22;3522;50.856;7.278;2023-05-19T05:21:16;9.40;99.90
6964;DHT22;3522;50.856;7.278;2023-05-19T05:23:42;9.60;99.90
6964;DHT22;3522;50.856;7.278;2023-05-19T05:26:15;9.70;99.90
6964;DHT22;3522;50.856;7.278;2023-05-19T05:28:42;9.70;99.90
6964;DHT22;3522;50.856;7.278;2023-05-19T05:31:10;9.80;99.90
6964;DHT22;3522;50.856;7.278;2023-05-19T05:33:37;10.00;99.90
6964;DHT22;3522;50.856;7.278;2023-05-19T05:36:04;10.10;99.90
6964;DHT22;3522;50.856;7.278;2023-05-19T05:38:30;10.20;99.90
6964;DHT22;3522;50.856;7.278;2023-05-19T05:40:57;10.40;99.90
6964;DHT22;3522;50.856;7.278;2023-05-19T05:43:23;10.60;99.90
6964;DHT22;3522;50.856;7.278;2023-05-19T05:45:50;10.80;99.90
6964;DHT22;3522;50.856;7.278;2023-05-19T05:48:18;11.00;99.90
6964;DHT22;3522;50.856;7.278;2023-05-19T05:50:45;11.20;99.90
6964;DHT22;3522;50.856;7.278;2023-05-19T05:53:13;11.50;99.90
6964;DHT22;3522;50.856;7.278;2023-05-19T05:55:43;11.70;99.90
6964;DHT22;3522;50.856;7.278;2023-05-19T05:58:10;11.90;99.90
6964;DHT22;3522;50.856;7.278;2023-05-19T06:00:36;12.20;99.90
6964;DHT22;3522;50.856;7.278;2023-05-19T06:03:03;12.40;99.90
6964;DHT22;3522;50.856;7.278;2023-05-19T06:05:31;12.70;99.90
6964;DHT22;3522;50.856;7.278;2023-05-19T06:07:58;13.00;99.90
6964;DHT22;3522;50.856;7.278;2023-05-19T06:10:24;13.10;99.90
6964;DHT22;3522;50.856;7.278;2023-05-19T06:12:51;13.30;99.90
6964;DHT22;3522;50.856;7.278;2023-05-19T06:15:17;13.50;99.90
6964;DHT22;3522;50.856;7.278;2023-05-19T06:17:44;13.70;99.90
6964;DHT22;3522;50.856;7.278;2023-05-19T06:20:11;13.90;99.90
6964;DHT22;3522;50.856;7.278;2023-05-19T06:22:39;13.90;99.90
6964;DHT22;3522;50.856;7.278;2023-05-19T06:25:06;14.10;99.90
6964;DHT22;3522;50.856;7.278;2023-05-19T06:27:35;14.30;99.90
6964;DHT22;3522;50.856;7.278;2023-05-19T06:30:02;14.50;99.90
6964;DHT22;3522;50.856;7.278;2023-05-19T06:32:29;14.70;99.90
6964;DHT22;3522;50.856;7.278;2023-05-19T06:34:55;15.10;99.90
6964;DHT22;3522;50.856;7.278;2023-05-19T06:37:22;15.30;99.90
6964;DHT22;3522;50.856;7.278;2023-05-19T06:39:50;15.60;99.90
6964;DHT22;3522;50.856;7.278;2023-05-19T06:42:17;16.00;99.90
6964;DHT22;3522;50.856;7.278;2023-05-19T06:44:46;16.10;99.90
6964;DHT22;3522;50.856;7.278;2023-05-19T06:47:13;16.00;99.90
6964;DHT22;3522;50.856;7.278;2023-05-19T06:49:39;16.10;99.90
6964;DHT22;3522;50.856;7.278;2023-05-19T06:52:06;16.20;99.90
6964;DHT22;3522;50.856;7.278;2023-05-19T06:54:33;16.20;99.90
6964;DHT22;3522;50.856;7.278;2023-05-19T06:57:01;16.30;99.90
6964;DHT22;3522;50.856;7.278;2023-05-19T06:59:28;16.80;99.90
6964;DHT22;3522;50.856;7.278;2023-05-19T07:01:54;17.20;99.90
6964;DHT22;3522;50.856;7.278;2023-05-19T07:04:21;17.40;99.90
6964;DHT22;3522;50.856;7.278;2023-05-19T07:06:48;17.60;99.90
6964;DHT22;3522;50.856;7.278;2023-05-19T07:09:15;17.90;99.90
6964;DHT22;3522;50.856;7.278;2023-05-19T07:11:41;18.10;98.40
6964;DHT22;3522;50.856;7.278;2023-05-19T07:14:09;18.40;98.20
6964;DHT22;3522;50.856;7.278;2023-05-19T07:16:36;18.30;97.50
6964;DHT22;3522;50.856;7.278;2023-05-19T07:19:02;18.60;97.30
6964;DHT22;3522;50.856;7.278;2023-05-19T07:21:29;18.90;97.30
6964;DHT22;3522;50.856;7.278;2023-05-19T07:23:55;18.90;96.10
6964;DHT22;3522;50.856;7.278;2023-05-19T07:26:22;18.70;95.60
6964;DHT22;3522;50.856;7.278;2023-05-19T07:28:49;18.80;95.60
6964;DHT22;3522;50.856;7.278;2023-05-19T07:31:17;19.00;95.00
6964;DHT22;3522;50.856;7.278;2023-05-19T07:33:44;19.00;93.90
6964;DHT22;3522;50.856;7.278;2023-05-19T07:36:10;19.30;94.50
6964;DHT22;3522;50.856;7.278;2023-05-19T07:38:37;19.80;94.40
6964;DHT22;3522;50.856;7.278;2023-05-19T07:41:03;20.10;94.20
6964;DHT22;3522;50.856;7.278;2023-05-19T07:43:30;20.30;92.80
6964;DHT22;3522;50.856;7.278;2023-05-19T07:45:57;19.90;92.30
6964;DHT22;3522;50.856;7.278;2023-05-19T07:48:24;19.40;91.20
6964;DHT22;3522;50.856;7.278;2023-05-19T07:50:51;19.20;91.30
6964;DHT22;3522;50.856;7.278;2023-05-19T07:53:18;19.30;90.60
6964;DHT22;3522;50.856;7.278;2023-05-19T07:55:45;19.60;90.80
6964;DHT22;3522;50.856;7.278;2023-05-19T07:58:11;20.00;90.70
6964;DHT22;3522;50.856;7.278;2023-05-19T08:00:38;20.20;88.70
6964;DHT22;3522;50.856;7.278;2023-05-19T08:03:07;20.20;87.70
6964;DHT22;3522;50.856;7.278;2023-05-19T08:05:35;20.50;87.30
6964;DHT22;3522;50.856;7.278;2023-05-19T08:08:02;21.00;87.00
6964;DHT22;3522;50.856;7.278;2023-05-19T08:10:28;21.20;85.20
6964;DHT22;3522;50.856;7.278;2023-05-19T08:12:55;21.70;84.50
6964;DHT22;3522;50.856;7.278;2023-05-19T08:15:22;22.00;82.00
6964;DHT22;3522;50.856;7.278;2023-05-19T08:17:49;21.70;80.20
6964;DHT22;3522;50.856;7.278;2023-05-19T08:20:16;21.50;76.30
6964;DHT22;3522;50.856;7.278;2023-05-19T08:22:44;21.50;78.30
6964;DHT22;3522;50.856;7.278;2023-05-19T08:25:10;21.50;79.80
6964;DHT22;3522;50.856;7.278;2023-05-19T08:27:38;21.40;77.50
6964;DHT22;3522;50.856;7.278;2023-05-19T08:30:05;21.30;78.20
6964;DHT22;3522;50.856;7.278;2023-05-19T08:32:32;21.50;78.30
6964;DHT22;3522;50.856;7.278;2023-05-19T08:34:58;21.20;77.70
6964;DHT22;3522;50.856;7.278;2023-05-19T08:37:25;21.10;74.40
6964;DHT22;3522;50.856;7.278;2023-05-19T08:39:53;21.20;74.40
6964;DHT22;3522;50.856;7.278;2023-05-19T08:42:20;21.20;77.10
6964;DHT22;3522;50.856;7.278;2023-05-19T08:44:47;21.50;77.00
6964;DHT22;3522;50.856;7.278;2023-05-19T08:47:14;22.10;74.50
6964;DHT22;3522;50.856;7.278;2023-05-19T08:49:42;22.60;75.00
6964;DHT22;3522;50.856;7.278;2023-05-19T08:52:12;23.00;74.70
6964;DHT22;3522;50.856;7.278;2023-05-19T08:54:42;22.90;69.70
6964;DHT22;3522;50.856;7.278;2023-05-19T08:57:12;22.60;65.50
6964;DHT22;3522;50.856;7.278;2023-05-19T08:59:39;22.20;66.70
6964;DHT22;3522;50.856;7.278;2023-05-19T09:02:06;22.20;69.60
6964;DHT22;3522;50.856;7.278;2023-05-19T09:04:35;22.60;72.10
6964;DHT22;3522;50.856;7.278;2023-05-19T09:07:02;21.70;66.00
6964;DHT22;3522;50.856;7.278;2023-05-19T09:09:29;21.60;68.50
6964;DHT22;3522;50.856;7.278;2023-05-19T09:11:55;21.80;71.00
6964;DHT22;3522;50.856;7.278;2023-05-19T09:14:24;21.60;68.50
6964;DHT22;3522;50.856;7.278;2023-05-19T09:16:51;22.10;68.70
6964;DHT22;3522;50.856;7.278;2023-05-19T09:19:17;22.40;67.00
6964;DHT22;3522;50.856;7.278;2023-05-19T09:21:45;22.90;65.10
6964;DHT22;3522;50.856;7.278;2023-05-19T09:24:11;23.30;66.80
6964;DHT22;3522;50.856;7.278;2023-05-19T09:26:38;23.70;63.80
6964;DHT22;3522;50.856;7.278;2023-05-19T09:29:09;23.60;62.40
6964;DHT22;3522;50.856;7.278;2023-05-19T09:31:37;23.30;67.90
6964;DHT22;3522;50.856;7.278;2023-05-19T09:34:04;23.20;64.60
6964;DHT22;3522;50.856;7.278;2023-05-19T09:36:38;23.70;69.70
6964;DHT22;3522;50.856;7.278;2023-05-19T09:39:11;23.80;65.50
6964;DHT22;3522;50.856;7.278;2023-05-19T09:41:37;23.90;63.20
6964;DHT22;3522;50.856;7.278;2023-05-19T09:44:04;24.10;63.20
6964;DHT22;3522;50.856;7.278;2023-05-19T09:46:31;23.90;61.00
6964;DHT22;3522;50.856;7.278;2023-05-19T09:49:01;23.40;58.80
6964;DHT22;3522;50.856;7.278;2023-05-19T09:51:33;23.50;59.40
6964;DHT22;3522;50.856;7.278;2023-05-19T09:54:01;23.20;59.90
6964;DHT22;3522;50.856;7.278;2023-05-19T09:56:30;23.00;60.10
6964;DHT22;3522;50.856;7.278;2023-05-19T09:58:57;22.80;58.10
6964;DHT22;3522;50.856;7.278;2023-05-19T10:01:24;22.60;60.40
6964;DHT22;3522;50.856;7.278;2023-05-19T10:03:51;22.10;60.00
6964;DHT22;3522;50.856;7.278;2023-05-19T10:06:19;21.60;63.00
6964;DHT22;3522;50.856;7.278;2023-05-19T10:08:46;21.90;66.30
6964;DHT22;3522;50.856;7.278;2023-05-19T10:11:14;21.70;61.40
6964;DHT22;3522;50.856;7.278;2023-05-19T10:13:42;21.70;62.50
6964;DHT22;3522;50.856;7.278;2023-05-19T10:16:09;22.20;63.00
6964;DHT22;3522;50.856;7.278;2023-05-19T10:18:36;22.80;61.10
6964;DHT22;3522;50.856;7.278;2023-05-19T10:21:03;22.90;61.30
6964;DHT22;3522;50.856;7.278;2023-05-19T10:23:31;23.10;60.30
6964;DHT22;3522;50.856;7.278;2023-05-19T10:25:58;22.80;60.20
6964;DHT22;3522;50.856;7.278;2023-05-19T10:28:26;22.40;59.90
6964;DHT22;3522;50.856;7.278;2023-05-19T10:30:58;21.80;59.70
6964;DHT22;3522;50.856;7.278;2023-05-19T10:33:28;21.60;61.00
6964;DHT22;3522;50.856;7.278;2023-05-19T10:36:03;21.30;66.60
6964;DHT22;3522;50.856;7.278;2023-05-19T10:38:38;21.30;65.00
6964;DHT22;3522;50.856;7.278;2023-05-19T10:41:09;21.10;66.80
6964;DHT22;3522;50.856;7.278;2023-05-19T10:43:39;21.20;73.10
6964;DHT22;3522;50.856;7.278;2023-05-19T10:46:09;21.40;64.70
6964;DHT22;3522;50.856;7.278;2023-05-19T10:48:36;21.40;62.10
6964;DHT22;3522;50.856;7.278;2023-05-19T10:51:03;21.50;61.40
6964;DHT22;3522;50.856;7.278;2023-05-19T10:53:30;22.00;65.00
6964;DHT22;3522;50.856;7.278;2023-05-19T10:55:58;22.40;59.00
6964;DHT22;3522;50.856;7.278;2023-05-19T10:58:36;22.70;57.90
6964;DHT22;3522;50.856;7.278;2023-05-19T11:01:07;23.00;58.20
6964;DHT22;3522;50.856;7.278;2023-05-19T11:03:44;23.20;57.70
6964;DHT22;3522;50.856;7.278;2023-05-19T11:06:19;23.30;59.90
6964;DHT22;3522;50.856;7.278;2023-05-19T11:08:46;23.50;60.20
6964;DHT22;3522;50.856;7.278;2023-05-19T11:11:15;23.30;56.70
6964;DHT22;3522;50.856;7.278;2023-05-19T11:13:42;23.40;59.20
6964;DHT22;3522;50.856;7.278;2023-05-19T11:16:12;23.70;57.50
6964;DHT22;3522;50.856;7.278;2023-05-19T11:18:38;23.90;58.40
6964;DHT22;3522;50.856;7.278;2023-05-19T11:21:05;24.00;56.30
6964;DHT22;3522;50.856;7.278;2023-05-19T11:23:32;23.80;54.90
6964;DHT22;3522;50.856;7.278;2023-05-19T11:26:00;24.00;54.30
6964;DHT22;3522;50.856;7.278;2023-05-19T11:28:28;24.20;57.30
6964;DHT22;3522;50.856;7.278;2023-05-19T11:30:56;24.70;56.30
6964;DHT22;3522;50.856;7.278;2023-05-19T11:33:24;25.00;56.70
6964;DHT22;3522;50.856;7.278;2023-05-19T11:35:52;25.40;56.10
6964;DHT22;3522;50.856;7.278;2023-05-19T11:38:19;25.40;55.70
6964;DHT22;3522;50.856;7.278;2023-05-19T11:40:48;25.40;53.90
6964;DHT22;3522;50.856;7.278;2023-05-19T11:43:15;25.00;53.10
6964;DHT22;3522;50.856;7.278;2023-05-19T11:45:42;24.30;52.60
6964;DHT22;3522;50.856;7.278;2023-05-19T11:48:10;24.10;56.50
6964;DHT22;3522;50.856;7.278;2023-05-19T11:50:37;23.90;57.40
6964;DHT22;3522;50.856;7.278;2023-05-19T11:53:06;23.50;59.70
6964;DHT22;3522;50.856;7.278;2023-05-19T11:55:32;23.50;64.00
6964;DHT22;3522;50.856;7.278;2023-05-19T11:57:59;23.30;59.70
6964;DHT22;3522;50.856;7.278;2023-05-19T12:00:26;23.30;60.60
6964;DHT22;3522;50.856;7.278;2023-05-19T12:02:55;23.30;54.00
6964;DHT22;3522;50.856;7.278;2023-05-19T12:05:22;23.40;54.60
6964;DHT22;3522;50.856;7.278;2023-05-19T12:07:49;23.50;55.50
6964;DHT22;3522;50.856;7.278;2023-05-19T12:10:16;23.80;56.90
6964;DHT22;3522;50.856;7.278;2023-05-19T12:12:44;24.00;55.90
6964;DHT22;3522;50.856;7.278;2023-05-19T12:15:11;24.30;54.90
6964;DHT22;3522;50.856;7.278;2023-05-19T12:17:37;24.10;53.70
6964;DHT22;3522;50.856;7.278;2023-05-19T12:20:06;24.00;52.90
6964;DHT22;3522;50.856;7.278;2023-05-19T12:22:33;24.00;54.70
6964;DHT22;3522;50.856;7.278;2023-05-19T12:25:00;24.70;55.30
6964;DHT22;3522;50.856;7.278;2023-05-19T12:27:29;25.20;54.50
6964;DHT22;3522;50.856;7.278;2023-05-19T12:29:55;25.40;52.90
6964;DHT22;3522;50.856;7.278;2023-05-19T12:32:22;24.70;53.10
6964;DHT22;3522;50.856;7.278;2023-05-19T12:34:49;23.70;53.60
6964;DHT22;3522;50.856;7.278;2023-05-19T12:37:18;23.70;54.80
6964;DHT22;3522;50.856;7.278;2023-05-19T12:39:44;23.70;57.40
6964;DHT22;3522;50.856;7.278;2023-05-19T12:42:11;23.60;53.30
6964;DHT22;3522;50.856;7.278;2023-05-19T12:44:42;23.50;53.80
6964;DHT22;3522;50.856;7.278;2023-05-19T12:47:11;23.70;55.20
6964;DHT22;3522;50.856;7.278;2023-05-19T12:49:51;24.10;54.00
6964;DHT22;3522;50.856;7.278;2023-05-19T12:52:19;24.50;55.60
6964;DHT22;3522;50.856;7.278;2023-05-19T12:54:48;25.00;53.50
6964;DHT22;3522;50.856;7.278;2023-05-19T12:57:15;25.30;55.80
6964;DHT22;3522;50.856;7.278;2023-05-19T12:59:41;25.20;53.50
6964;DHT22;3522;50.856;7.278;2023-05-19T13:02:08;24.50;51.50
6964;DHT22;3522;50.856;7.278;2023-05-19T13:04:37;24.00;51.30
6964;DHT22;3522;50.856;7.278;2023-05-19T13:07:04;23.30;53.80
6964;DHT22;3522;50.856;7.278;2023-05-19T13:09:32;22.70;54.70
6964;DHT22;3522;50.856;7.278;2023-05-19T13:12:00;22.40;54.00
6964;DHT22;3522;50.856;7.278;2023-05-19T13:14:29;22.60;55.10
6964;DHT22;3522;50.856;7.278;2023-05-19T13:16:55;22.90;55.20
6964;DHT22;3522;50.856;7.278;2023-05-19T13:19:22;23.50;54.20
6964;DHT22;3522;50.856;7.278;2023-05-19T13:21:48;23.70;53.40
6964;DHT22;3522;50.856;7.278;2023-05-19T13:24:16;23.40;52.10
6964;DHT22;3522;50.856;7.278;2023-05-19T13:26:44;23.10;53.40
6964;DHT22;3522;50.856;7.278;2023-05-19T13:29:12;23.50;52.90
6964;DHT22;3522;50.856;7.278;2023-05-19T13:31:39;24.10;52.70
6964;DHT22;3522;50.856;7.278;2023-05-19T13:34:05;24.40;54.50
6964;DHT22;3522;50.856;7.278;2023-05-19T13:36:32;24.50;52.30
6964;DHT22;3522;50.856;7.278;2023-05-19T13:38:59;24.50;52.60
6964;DHT22;3522;50.856;7.278;2023-05-19T13:41:26;24.60;50.70
6964;DHT22;3522;50.856;7.278;2023-05-19T13:43:55;25.00;51.00
6964;DHT22;3522;50.856;7.278;2023-05-19T13:46:22;25.10;50.50
6964;DHT22;3522;50.856;7.278;2023-05-19T13:48:49;25.50;52.30
6964;DHT22;3522;50.856;7.278;2023-05-19T13:51:15;25.50;52.70
6964;DHT22;3522;50.856;7.278;2023-05-19T13:53:42;25.10;51.20
6964;DHT22;3522;50.856;7.278;2023-05-19T13:56:08;24.50;51.60
6964;DHT22;3522;50.856;7.278;2023-05-19T13:58:35;23.80;52.20
6964;DHT22;3522;50.856;7.278;2023-05-19T14:01:03;23.20;53.10
6964;DHT22;3522;50.856;7.278;2023-05-19T14:03:29;22.70;51.90
6964;DHT22;3522;50.856;7.278;2023-05-19T14:05:56;22.50;54.40
6964;DHT22;3522;50.856;7.278;2023-05-19T14:08:23;22.60;55.20
6964;DHT22;3522;50.856;7.278;2023-05-19T14:10:50;22.80;52.50
6964;DHT22;3522;50.856;7.278;2023-05-19T14:13:17;23.10;54.40
6964;DHT22;3522;50.856;7.278;2023-05-19T14:15:43;23.00;52.20
6964;DHT22;3522;50.856;7.278;2023-05-19T14:18:11;23.60;52.20
6964;DHT22;3522;50.856;7.278;2023-05-19T14:20:38;23.90;50.60
6964;DHT22;3522;50.856;7.278;2023-05-19T14:23:04;24.40;50.40
6964;DHT22;3522;50.856;7.278;2023-05-19T14:25:31;24.70;53.20
6964;DHT22;3522;50.856;7.278;2023-05-19T14:27:58;25.00;50.90
6964;DHT22;3522;50.856;7.278;2023-05-19T14:30:24;24.50;49.90
6964;DHT22;3522;50.856;7.278;2023-05-19T14:32:51;23.70;50.00
6964;DHT22;3522;50.856;7.278;2023-05-19T14:35:19;23.60;51.50
6964;DHT22;3522;50.856;7.278;2023-05-19T14:37:45;23.70;52.50
6964;DHT22;3522;50.856;7.278;2023-05-19T14:40:12;24.00;52.50
6964;DHT22;3522;50.856;7.278;2023-05-19T14:42:38;24.50;51.60
6964;DHT22;3522;50.856;7.278;2023-05-19T14:45:05;24.90;49.70
6964;DHT22;3522;50.856;7.278;2023-05-19T14:47:32;25.20;51.10
6964;DHT22;3522;50.856;7.278;2023-05-19T14:49:59;24.90;48.70
6964;DHT22;3522;50.856;7.278;2023-05-19T14:52:27;24.70;48.50
6964;DHT22;3522;50.856;7.278;2023-05-19T14:54:53;24.40;48.20
6964;DHT22;3522;50.856;7.278;2023-05-19T14:57:21;24.20;49.30
6964;DHT22;3522;50.856;7.278;2023-05-19T14:59:47;24.00;50.10
6964;DHT22;3522;50.856;7.278;2023-05-19T15:02:14;23.30;50.00
6964;DHT22;3522;50.856;7.278;2023-05-19T15:04:40;22.90;51.60
6964;DHT22;3522;50.856;7.278;2023-05-19T15:07:07;22.90;52.40
6964;DHT22;3522;50.856;7.278;2023-05-19T15:09:35;22.90;50.40
6964;DHT22;3522;50.856;7.278;2023-05-19T15:12:02;23.10;50.30
6964;DHT22;3522;50.856;7.278;2023-05-19T15:14:29;23.20;52.10
6964;DHT22;3522;50.856;7.278;2023-05-19T15:16:55;23.40;51.00
6964;DHT22;3522;50.856;7.278;2023-05-19T15:19:22;23.10;52.20
6964;DHT22;3522;50.856;7.278;2023-05-19T15:21:48;23.10;51.40
6964;DHT22;3522;50.856;7.278;2023-05-19T15:24:15;23.00;51.90
6964;DHT22;3522;50.856;7.278;2023-05-19T15:26:43;22.80;54.30
6964;DHT22;3522;50.856;7.278;2023-05-19T15:29:10;22.70;54.30
6964;DHT22;3522;50.856;7.278;2023-05-19T15:31:36;22.60;53.40
6964;DHT22;3522;50.856;7.278;2023-05-19T15:34:03;22.30;53.50
6964;DHT22;3522;50.856;7.278;2023-05-19T15:36:29;22.20;54.10
6964;DHT22;3522;50.856;7.278;2023-05-19T15:38:56;22.00;54.70
6964;DHT22;3522;50.856;7.278;2023-05-19T15:41:23;22.00;55.70
6964;DHT22;3522;50.856;7.278;2023-05-19T15:43:51;21.90;56.20
6964;DHT22;3522;50.856;7.278;2023-05-19T15:46:18;21.90;56.20
6964;DHT22;3522;50.856;7.278;2023-05-19T15:48:44;21.90;55.60
6964;DHT22;3522;50.856;7.278;2023-05-19T15:51:11;21.80;55.80
6964;DHT22;3522;50.856;7.278;2023-05-19T15:53:38;21.60;56.20
6964;DHT22;3522;50.856;7.278;2023-05-19T15:56:04;21.60;57.90
6964;DHT22;3522;50.856;7.278;2023-05-19T15:58:31;21.60;57.10
6964;DHT22;3522;50.856;7.278;2023-05-19T16:00:59;21.50;57.00
6964;DHT22;3522;50.856;7.278;2023-05-19T16:03:25;21.40;57.30
6964;DHT22;3522;50.856;7.278;2023-05-19T16:05:52;21.40;57.80
6964;DHT22;3522;50.856;7.278;2023-05-19T16:08:19;21.10;56.60